createdAt,value
2022-08-12T00:00:35.460Z,76.10
2022-08-12T00:03:23.410Z,76.10
2022-08-12T00:06:09.730Z,76.10
2022-08-12T00:08:58.947Z,76.30
2022-08-12T00:11:47.847Z,77.50
2022-08-12T00:14:37.510Z,78.60
2022-08-12T00:17:23.424Z,76.70
2022-08-12T00:20:10.206Z,76.60
2022-08-12T00:22:59.125Z,76.70
2022-08-12T00:26:21.496Z,77.10
2022-08-12T00:29:04.852Z,77.00
2022-08-12T00:31:50.177Z,77.40
2022-08-12T00:34:35.940Z,77.90
2022-08-12T00:37:24.059Z,77.50
2022-08-12T00:40:12.580Z,77.70
2022-08-12T00:42:41.770Z,77.70
2022-08-12T00:45:11.267Z,77.80
2022-08-12T00:47:39.531Z,77.90
2022-08-12T00:50:19.258Z,78.20
2022-08-12T00:52:47.933Z,78.70
2022-08-12T00:55:19.529Z,78.20
2022-08-12T00:57:49.273Z,78.30
2022-08-12T01:00:25.009Z,78.40
2022-08-12T01:02:58.086Z,78.70
2022-08-12T01:05:45.078Z,78.60
2022-08-12T01:08:30.880Z,79.10
2022-08-12T01:11:16.712Z,79.00
2022-08-12T01:13:50.255Z,79.10
2022-08-12T01:16:22.485Z,79.90
2022-08-12T01:18:52.661Z,79.70
2022-08-12T01:21:28.957Z,79.60
2022-08-12T01:24:30.305Z,80.00
2022-08-12T01:26:59.796Z,79.80
2022-08-12T01:29:33.162Z,80.00
2022-08-12T01:32:06.402Z,81.20
2022-08-12T01:34:39.252Z,80.00
2022-08-12T01:37:09.890Z,80.20
2022-08-12T01:40:34.441Z,80.40
2022-08-12T01:42:33.993Z,80.40
2022-08-12T01:45:02.541Z,80.70
2022-08-12T01:48:05.303Z,80.80
2022-08-12T01:50:35.065Z,81.10
2022-08-12T01:53:10.497Z,81.00
2022-08-12T01:55:42.972Z,81.70
2022-08-12T01:58:24.470Z,81.00
2022-08-12T02:00:59.287Z,80.80
2022-08-12T02:04:05.791Z,81.10
2022-08-12T02:06:55.282Z,81.20
2022-08-12T02:10:04.611Z,81.50
2022-08-12T02:13:05.901Z,81.30
2022-08-12T02:15:49.595Z,81.60
2022-08-12T02:18:41.630Z,81.40
2022-08-12T02:21:31.539Z,82.20
2022-08-12T02:24:02.555Z,81.30
2022-08-12T02:26:30.787Z,81.70
2022-08-12T02:28:57.803Z,81.50
2022-08-12T02:31:27.033Z,81.70
2022-08-12T02:33:55.859Z,81.60
2022-08-12T02:36:25.721Z,81.80
2022-08-12T02:38:57.321Z,82.10
2022-08-12T02:41:27.897Z,81.40
2022-08-12T02:44:07.601Z,81.40
2022-08-12T02:46:41.847Z,82.30
2022-08-12T02:49:17.423Z,81.90
2022-08-12T02:51:45.280Z,82.50
2022-08-12T02:54:16.559Z,82.20
2022-08-12T02:56:50.502Z,82.00
2022-08-12T02:59:21.475Z,82.00
2022-08-12T03:01:51.994Z,81.90
2022-08-12T03:04:30.299Z,82.20
2022-08-12T03:07:10.900Z,82.00
2022-08-12T03:09:59.361Z,82.30
2022-08-12T03:12:49.113Z,82.40
2022-08-12T03:15:22.908Z,82.40
2022-08-12T03:18:27.099Z,82.50
2022-08-12T03:20:40.897Z,82.40
2022-08-12T03:23:17.391Z,82.50
2022-08-12T03:25:58.885Z,82.50
2022-08-12T03:28:54.286Z,82.60
2022-08-12T03:31:26.155Z,82.70
2022-08-12T03:34:02.144Z,82.60
2022-08-12T03:36:36.349Z,83.00
2022-08-12T03:39:16.993Z,83.50
2022-08-12T03:42:12.629Z,83.60
2022-08-12T03:45:04.056Z,83.00
2022-08-12T03:48:18.756Z,83.60
2022-08-12T03:51:06.484Z,83.60
2022-08-12T03:53:52.457Z,83.30
2022-08-12T03:56:38.264Z,83.20
2022-08-12T03:59:26.478Z,83.30
2022-08-12T04:01:57.666Z,83.10
2022-08-12T04:04:35.655Z,83.30
2022-08-12T04:07:10.074Z,83.30
2022-08-12T04:09:40.347Z,83.30
2022-08-12T04:12:26.384Z,83.80
2022-08-12T04:14:56.983Z,84.70
2022-08-12T04:17:28.042Z,83.50
2022-08-12T04:19:56.544Z,83.80
2022-08-12T04:22:29.410Z,83.80
2022-08-12T04:25:01.442Z,84.50
2022-08-12T04:27:32.416Z,83.90
2022-08-12T04:30:29.705Z,84.00
2022-08-12T04:32:49.941Z,84.30
2022-08-12T04:35:17.880Z,84.00
2022-08-12T04:37:58.185Z,84.10
2022-08-12T04:40:33.449Z,84.40
2022-08-12T04:43:03.493Z,84.50
2022-08-12T04:45:34.781Z,84.50
2022-08-12T04:48:04.330Z,84.80
2022-08-12T04:50:36.897Z,84.50
2022-08-12T04:53:08.726Z,85.10
2022-08-12T04:55:40.109Z,84.70
2022-08-12T04:58:12.837Z,85.30
2022-08-12T05:00:41.911Z,84.70
2022-08-12T05:03:11.439Z,85.20
2022-08-12T05:05:42.725Z,85.90
2022-08-12T05:08:17.476Z,84.50
2022-08-12T05:10:46.660Z,84.50
2022-08-12T05:13:17.423Z,85.20
2022-08-12T05:16:02.466Z,84.60
2022-08-12T05:18:45.905Z,85.20
2022-08-12T05:21:14.689Z,84.00
2022-08-12T05:23:42.894Z,84.00
2022-08-12T05:26:12.532Z,84.50
2022-08-12T05:28:40.473Z,84.80
2022-08-12T05:31:12.494Z,84.10
2022-08-12T05:33:41.999Z,84.50
2022-08-12T05:36:12.665Z,85.80
2022-08-12T05:38:58.155Z,84.10
2022-08-12T05:41:28.868Z,83.90
2022-08-12T05:43:58.732Z,84.10
2022-08-12T05:46:26.900Z,85.00
2022-08-12T05:48:55.114Z,84.60
2022-08-12T05:51:38.611Z,84.30
2022-08-12T05:54:13.606Z,84.10
2022-08-12T05:56:41.305Z,84.80
2022-08-12T05:59:10.990Z,84.80
2022-08-12T06:02:09.645Z,84.90
2022-08-12T06:04:32.194Z,87.20
2022-08-12T06:06:59.334Z,88.40
2022-08-12T06:09:30.843Z,85.60
2022-08-12T06:12:05.169Z,86.00
2022-08-12T06:14:37.777Z,85.40
2022-08-12T06:17:05.866Z,85.00
2022-08-12T06:20:26.537Z,85.10
2022-08-12T06:22:19.554Z,83.70
2022-08-12T06:24:48.322Z,83.50
2022-08-12T06:27:18.808Z,83.00
2022-08-12T06:30:09.662Z,83.30
2022-08-12T06:32:35.377Z,83.90
2022-08-12T06:35:25.790Z,84.80
2022-08-12T06:37:56.993Z,83.00
2022-08-12T06:40:45.163Z,82.20
2022-08-12T06:43:15.097Z,81.50
2022-08-12T06:45:46.778Z,82.10
2022-08-12T06:48:18.744Z,83.80
2022-08-12T06:50:46.775Z,82.00
2022-08-12T06:53:18.389Z,83.80
2022-08-12T06:55:57.768Z,83.80
2022-08-12T06:58:29.786Z,81.00
2022-08-12T07:00:58.247Z,82.80
2022-08-12T07:03:30.050Z,84.10
2022-08-12T07:05:58.171Z,81.40
2022-08-12T07:08:32.839Z,82.20
2022-08-12T07:11:06.924Z,82.60
2022-08-12T07:14:11.192Z,83.60
2022-08-12T07:16:51.667Z,83.00
2022-08-12T07:19:21.290Z,82.50
2022-08-12T07:22:00.084Z,81.90
2022-08-12T07:24:32.509Z,80.50
2022-08-12T07:26:59.402Z,79.30
2022-08-12T07:30:03.602Z,79.20
2022-08-12T07:32:15.650Z,77.70
2022-08-12T07:34:43.234Z,80.00
2022-08-12T07:37:13.665Z,78.30
2022-08-12T07:39:50.817Z,79.70
2022-08-12T07:42:27.353Z,80.70
2022-08-12T07:44:59.620Z,79.70
2022-08-12T07:47:27.477Z,77.30
2022-08-12T07:50:04.453Z,78.50
2022-08-12T07:52:43.053Z,78.60
2022-08-12T07:55:14.208Z,77.30
2022-08-12T07:58:10.475Z,79.40
2022-08-12T08:00:44.673Z,77.50
2022-08-12T08:03:17.062Z,78.10
2022-08-12T08:05:51.594Z,78.00
2022-08-12T08:08:22.430Z,76.90
2022-08-12T08:10:52.650Z,75.30
2022-08-12T08:13:20.183Z,74.40
2022-08-12T08:16:02.870Z,75.50
2022-08-12T08:18:33.225Z,75.60
2022-08-12T08:21:00.364Z,74.70
2022-08-12T08:24:10.902Z,71.40
2022-08-12T08:26:37.808Z,71.40
2022-08-12T08:29:04.901Z,69.40
2022-08-12T08:31:31.877Z,68.60
2022-08-12T08:34:04.812Z,66.70
2022-08-12T08:36:38.954Z,64.40
2022-08-12T08:39:10.897Z,64.50
2022-08-12T08:42:16.790Z,65.80
2022-08-12T08:44:46.117Z,61.40
2022-08-12T08:47:13.312Z,61.50
2022-08-12T08:49:43.343Z,61.90
2022-08-12T08:52:11.309Z,61.30
2022-08-12T08:54:40.819Z,58.60
2022-08-12T08:57:08.994Z,59.20
2022-08-12T08:59:36.323Z,56.70
2022-08-12T09:02:03.437Z,56.80
2022-08-12T09:05:11.972Z,54.80
2022-08-12T09:07:43.733Z,55.50
2022-08-12T09:10:09.237Z,54.30
2022-08-12T09:13:23.866Z,53.80
2022-08-12T09:15:59.516Z,54.40
2022-08-12T09:18:33.336Z,52.30
2022-08-12T09:21:03.780Z,53.60
2022-08-12T09:26:31.433Z,52.80
2022-08-12T09:29:12.310Z,52.90
2022-08-12T09:32:04.337Z,51.00
2022-08-12T09:34:34.071Z,51.40
2022-08-12T09:37:19.677Z,50.50
2022-08-12T09:40:02.176Z,51.20
2022-08-12T09:43:15.235Z,49.60
2022-08-12T09:46:11.815Z,51.40
2022-08-12T09:48:35.275Z,51.10
2022-08-12T09:51:03.731Z,51.10
2022-08-12T09:53:36.139Z,50.80
2022-08-12T09:57:00.932Z,51.00
2022-08-12T09:59:10.000Z,53.00
2022-08-12T10:02:43.109Z,51.20
2022-08-12T10:04:26.050Z,51.30
2022-08-12T10:06:59.394Z,51.00
2022-08-12T10:09:28.813Z,51.60
2022-08-12T10:12:33.585Z,52.20
2022-08-12T10:15:02.206Z,52.70
2022-08-12T10:17:29.239Z,52.90
2022-08-12T10:19:59.741Z,55.00
2022-08-12T10:22:38.782Z,53.20
2022-08-12T10:26:35.333Z,53.50
2022-08-12T10:28:39.172Z,53.80
2022-08-12T10:31:16.685Z,53.50
2022-08-12T10:34:05.097Z,53.00
2022-08-12T10:36:40.693Z,53.50
2022-08-12T10:40:01.910Z,55.40
2022-08-12T10:42:29.640Z,54.70
2022-08-12T10:45:03.836Z,54.80
2022-08-12T10:48:07.287Z,54.70
2022-08-12T10:50:32.598Z,57.00
2022-08-12T10:53:11.274Z,55.70
2022-08-12T10:55:56.026Z,55.50
2022-08-12T10:58:27.944Z,54.10
2022-08-12T11:01:49.237Z,55.60
2022-08-12T11:04:20.846Z,53.80
2022-08-12T11:07:07.996Z,54.90
2022-08-12T11:09:51.226Z,55.60
2022-08-12T11:12:56.078Z,54.40
2022-08-12T11:15:14.830Z,54.50
2022-08-12T11:17:54.081Z,56.30
2022-08-12T11:20:30.780Z,54.30
2022-08-12T11:23:25.897Z,55.00
2022-08-12T11:25:59.654Z,55.40
2022-08-12T11:28:33.475Z,55.30
2022-08-12T11:31:02.822Z,57.00
2022-08-12T11:34:06.770Z,55.70
2022-08-12T11:36:22.057Z,55.30
2022-08-12T11:38:57.631Z,54.70
2022-08-12T11:41:31.105Z,55.90
2022-08-12T11:44:35.024Z,55.60
2022-08-12T11:46:56.283Z,55.20
2022-08-12T11:49:32.388Z,55.30
2022-08-12T11:52:03.605Z,54.80
2022-08-12T11:54:31.569Z,56.70
2022-08-12T11:57:01.929Z,55.90
2022-08-12T12:02:20.839Z,56.80
2022-08-12T12:04:52.900Z,55.80
2022-08-12T12:07:33.972Z,55.50
2022-08-12T12:10:15.819Z,56.80
2022-08-12T12:12:49.552Z,56.30
2022-08-12T12:15:24.884Z,55.80
2022-08-12T12:17:56.288Z,56.60
2022-08-12T12:20:26.053Z,56.20
2022-08-12T12:22:57.466Z,56.10
2022-08-12T12:25:59.534Z,55.80
2022-08-12T12:28:35.439Z,56.10
2022-08-12T12:30:58.886Z,55.80
2022-08-12T12:33:26.547Z,55.20
2022-08-12T12:36:20.767Z,56.40
2022-08-12T12:38:49.981Z,55.80
2022-08-12T12:41:21.287Z,56.00
2022-08-12T12:44:06.105Z,56.50
2022-08-12T12:46:44.672Z,56.30
2022-08-12T12:49:15.426Z,56.60
2022-08-12T12:52:06.789Z,56.60
2022-08-12T12:54:31.749Z,57.30
2022-08-12T12:57:01.511Z,56.30
2022-08-12T12:59:56.692Z,56.30
2022-08-12T13:02:31.660Z,55.60
2022-08-12T13:05:03.538Z,55.20
2022-08-12T13:07:54.128Z,55.20
2022-08-12T13:10:30.562Z,55.60
2022-08-12T13:14:07.277Z,55.30
2022-08-12T13:15:50.736Z,56.90
2022-08-12T13:18:20.035Z,55.50
2022-08-12T13:20:59.403Z,56.50
2022-08-12T13:23:36.249Z,57.60
2022-08-12T13:26:07.629Z,56.50
2022-08-12T13:28:55.957Z,56.30
2022-08-12T13:31:27.784Z,56.60
2022-08-12T13:34:33.420Z,57.10
2022-08-12T13:36:42.176Z,57.10
2022-08-12T13:39:09.359Z,57.50
2022-08-12T13:41:36.536Z,56.70
2022-08-12T13:44:10.728Z,55.20
2022-08-12T13:46:38.761Z,55.10
2022-08-12T13:49:07.697Z,56.10
2022-08-12T13:51:40.859Z,55.90
2022-08-12T13:54:14.134Z,56.60
2022-08-12T13:56:42.290Z,55.60
2022-08-12T13:59:20.374Z,55.90
2022-08-12T14:01:54.447Z,54.30
2022-08-12T14:04:23.805Z,51.50
2022-08-12T14:06:51.760Z,49.80
2022-08-12T14:09:19.975Z,47.20
2022-08-12T14:11:59.199Z,46.30
2022-08-12T14:14:31.268Z,46.40
2022-08-12T14:17:10.599Z,48.30
2022-08-12T14:19:48.824Z,50.10
2022-08-12T14:22:26.029Z,46.90
2022-08-12T14:24:58.780Z,46.00
2022-08-12T14:28:03.411Z,44.20
2022-08-12T14:30:28.858Z,41.30
2022-08-12T14:33:02.853Z,40.70
2022-08-12T14:35:34.060Z,42.40
2022-08-12T14:38:25.958Z,40.80
2022-08-12T14:40:58.647Z,41.90
2022-08-12T14:43:58.949Z,41.50
2022-08-12T14:46:27.880Z,39.00
2022-08-12T14:48:57.676Z,38.30
2022-08-12T14:52:43.211Z,38.10
2022-08-12T14:57:20.394Z,34.70
2022-08-12T15:00:09.064Z,37.10
2022-08-12T15:02:40.014Z,34.20
2022-08-12T15:05:08.167Z,37.30
2022-08-12T15:07:49.502Z,39.60
2022-08-12T15:10:25.007Z,41.70
2022-08-12T15:12:55.518Z,44.40
2022-08-12T15:15:23.001Z,45.60
2022-08-12T15:18:02.019Z,46.00
2022-08-12T15:20:37.449Z,45.00
2022-08-12T15:23:18.067Z,42.90
2022-08-12T15:26:02.695Z,42.30
2022-08-12T15:28:34.764Z,41.00
2022-08-12T15:31:21.274Z,43.40
2022-08-12T15:33:55.190Z,44.90
2022-08-12T15:36:53.555Z,43.20
2022-08-12T15:39:16.933Z,44.80
2022-08-12T15:41:49.181Z,46.30
2022-08-12T15:44:38.022Z,48.30
2022-08-12T15:47:04.792Z,49.00
2022-08-12T15:49:42.999Z,49.10
2022-08-12T15:52:27.028Z,49.80
2022-08-12T15:54:58.393Z,50.90
2022-08-12T15:57:27.004Z,51.00
2022-08-12T16:00:07.004Z,53.00
2022-08-12T16:02:50.529Z,53.10
2022-08-12T16:06:16.800Z,52.60
2022-08-12T16:08:17.212Z,53.40
2022-08-12T16:10:47.412Z,55.10
2022-08-12T16:13:32.610Z,54.80
2022-08-12T16:16:12.238Z,55.00
2022-08-12T16:18:57.357Z,54.20
2022-08-12T16:21:51.355Z,56.10
2022-08-12T16:24:15.849Z,54.60
2022-08-12T16:26:45.108Z,55.40
2022-08-12T16:29:19.332Z,54.50
2022-08-12T16:31:49.381Z,56.00
2022-08-12T16:34:38.391Z,54.60
2022-08-12T16:37:09.914Z,54.80
2022-08-12T16:39:59.636Z,55.30
2022-08-12T16:42:28.974Z,55.20
2022-08-12T16:45:03.109Z,56.80
2022-08-12T16:47:57.579Z,55.70
2022-08-12T16:50:30.623Z,56.50
2022-08-12T16:53:03.271Z,56.50
2022-08-12T16:55:41.756Z,56.00
2022-08-12T16:58:28.131Z,56.60
2022-08-12T17:01:02.132Z,56.10
2022-08-12T17:03:32.507Z,56.70
2022-08-12T17:06:04.190Z,57.30
2022-08-12T17:08:31.222Z,57.60
2022-08-12T17:10:58.080Z,58.50
2022-08-12T17:13:26.191Z,57.20
2022-08-12T17:16:05.234Z,58.90
2022-08-12T17:18:42.793Z,57.50
2022-08-12T17:21:41.327Z,57.80
2022-08-12T17:24:15.823Z,58.10
2022-08-12T17:26:49.103Z,58.40
2022-08-12T17:29:23.928Z,59.70
2022-08-12T17:32:02.787Z,58.40
2022-08-12T17:34:50.454Z,58.40
2022-08-12T17:37:20.304Z,58.40
2022-08-12T17:40:15.641Z,59.10
2022-08-12T17:42:38.332Z,59.00
2022-08-12T17:45:18.416Z,60.70
2022-08-12T17:48:01.390Z,62.20
2022-08-12T17:50:39.499Z,63.30
2022-08-12T17:53:10.941Z,60.90
2022-08-12T17:55:47.591Z,60.00
2022-08-12T17:58:35.624Z,67.10
2022-08-12T18:01:10.972Z,62.00
2022-08-12T18:04:05.208Z,61.50
2022-08-12T18:06:28.000Z,60.60
2022-08-12T18:08:58.767Z,61.70
2022-08-12T18:12:05.863Z,60.90
2022-08-12T18:14:37.206Z,62.70
2022-08-12T18:17:08.711Z,62.60
2022-08-12T18:20:04.974Z,61.70
2022-08-12T18:22:32.815Z,61.10
2022-08-12T18:25:03.896Z,62.10
2022-08-12T18:27:44.705Z,61.90
2022-08-12T18:30:20.571Z,62.10
2022-08-12T18:33:04.936Z,62.00
2022-08-12T18:35:47.537Z,62.60
2022-08-12T18:38:24.858Z,62.60
2022-08-12T18:41:20.900Z,62.40
2022-08-12T18:44:07.713Z,63.70
2022-08-12T18:46:54.140Z,66.50
2022-08-12T18:49:37.918Z,65.60
2022-08-12T18:52:08.135Z,64.20
2022-08-12T18:54:49.053Z,66.10
2022-08-12T18:58:06.404Z,66.60
2022-08-12T19:00:18.834Z,65.00
2022-08-12T19:02:57.047Z,67.00
2022-08-12T19:05:54.412Z,65.30
2022-08-12T19:08:16.229Z,67.80
2022-08-12T19:10:50.768Z,68.70
2022-08-12T19:13:39.345Z,69.60
2022-08-12T19:16:10.720Z,66.80
2022-08-12T19:18:45.025Z,67.40
2022-08-12T19:21:20.235Z,67.30
2022-08-12T19:24:08.032Z,67.70
2022-08-12T19:26:35.689Z,66.80
2022-08-12T19:29:04.965Z,66.80
2022-08-12T19:31:57.822Z,67.10
2022-08-12T19:35:32.948Z,67.30
2022-08-12T19:38:02.673Z,67.70
2022-08-12T19:40:32.941Z,71.40
2022-08-12T19:43:19.189Z,68.80
2022-08-12T19:45:54.445Z,70.20
2022-08-12T19:48:32.672Z,70.20
2022-08-12T19:51:09.214Z,69.90
2022-08-12T19:53:57.565Z,73.30
2022-08-12T19:56:28.674Z,69.90
2022-08-12T19:59:18.705Z,70.10
2022-08-12T20:02:02.728Z,71.20
2022-08-12T20:04:37.584Z,70.80
2022-08-12T20:07:23.161Z,72.00
2022-08-12T20:09:52.430Z,73.50
2022-08-12T20:12:31.598Z,75.50
2022-08-12T20:15:05.025Z,80.20
2022-08-12T20:17:36.299Z,74.70
2022-08-12T20:20:27.614Z,81.00
2022-08-12T20:22:55.718Z,73.60
2022-08-12T20:25:51.881Z,77.50
2022-08-12T20:28:09.646Z,74.60
2022-08-12T20:30:53.077Z,76.60
2022-08-12T20:33:50.135Z,79.90
2022-08-12T20:36:41.574Z,83.20
2022-08-12T20:39:34.199Z,75.50
2022-08-12T20:41:59.984Z,75.10
2022-08-12T20:44:27.256Z,74.70
2022-08-12T20:47:06.341Z,79.30
2022-08-12T20:49:45.435Z,80.70
2022-08-12T20:52:18.341Z,82.60
2022-08-12T20:54:50.205Z,75.90
2022-08-12T20:57:19.460Z,80.70
2022-08-12T20:59:53.985Z,78.70
2022-08-12T21:02:24.708Z,79.80
2022-08-12T21:05:20.368Z,77.70
2022-08-12T21:07:52.386Z,77.30
2022-08-12T21:10:20.779Z,81.50
2022-08-12T21:12:53.180Z,82.90
2022-08-12T21:15:30.256Z,77.20
2022-08-12T21:18:11.320Z,80.80
2022-08-12T21:20:56.150Z,79.30
2022-08-12T21:23:30.614Z,82.50
2022-08-12T21:26:06.006Z,78.90
2022-08-12T21:28:38.532Z,77.70
2022-08-12T21:32:37.808Z,77.90
2022-08-12T21:34:07.451Z,79.70
2022-08-12T21:36:39.818Z,77.00
2022-08-12T21:39:19.340Z,82.40
2022-08-12T21:41:53.126Z,79.50
2022-08-12T21:45:46.319Z,81.50
2022-08-12T21:47:23.522Z,82.40
2022-08-12T21:50:02.473Z,79.40
2022-08-12T21:52:34.517Z,80.00
2022-08-12T21:55:08.264Z,81.90
2022-08-12T21:57:50.753Z,82.20
2022-08-12T22:00:23.757Z,85.30
2022-08-12T22:03:09.338Z,84.30
2022-08-12T22:05:54.582Z,80.30
2022-08-12T22:08:22.206Z,79.70
2022-08-12T22:10:56.270Z,80.30
2022-08-12T22:14:04.232Z,79.40
2022-08-12T22:16:16.326Z,79.20
2022-08-12T22:18:50.470Z,81.20
2022-08-12T22:21:24.450Z,81.10
2022-08-12T22:24:05.403Z,79.70
2022-08-12T22:26:37.006Z,78.30
2022-08-12T22:29:23.529Z,79.40
2022-08-12T22:31:54.478Z,76.70
2022-08-12T22:34:29.466Z,81.90
2022-08-12T22:36:58.959Z,78.70
2022-08-12T22:39:28.283Z,77.20
2022-08-12T22:42:20.023Z,75.40
2022-08-12T22:45:05.561Z,76.20
2022-08-12T22:47:54.857Z,77.50
2022-08-12T22:50:27.534Z,75.10
2022-08-12T22:53:15.994Z,76.40
2022-08-12T22:56:00.364Z,77.00
2022-08-12T22:58:40.776Z,75.30
2022-08-12T23:01:11.008Z,77.10
2022-08-12T23:03:48.860Z,76.30
2022-08-12T23:06:19.695Z,75.20
2022-08-12T23:08:50.669Z,76.30
2022-08-12T23:11:23.808Z,75.30
2022-08-12T23:13:56.338Z,75.50
2022-08-12T23:16:31.600Z,75.50
2022-08-12T23:19:23.091Z,76.20
2022-08-12T23:22:05.857Z,75.60
2022-08-12T23:24:56.564Z,76.60
2022-08-12T23:27:51.191Z,81.50
2022-08-12T23:30:31.800Z,77.90
2022-08-12T23:33:19.982Z,77.60
2022-08-12T23:36:02.253Z,77.50
2022-08-12T23:38:35.402Z,78.30
2022-08-12T23:41:05.735Z,78.80
2022-08-12T23:43:38.988Z,78.00
2022-08-12T23:46:19.287Z,80.50
2022-08-12T23:48:47.903Z,80.30
2022-08-12T23:51:25.131Z,79.70
2022-08-12T23:53:59.778Z,79.00
2022-08-12T23:56:31.958Z,81.20
2022-08-12T23:59:01.721Z,78.10
